Time;durP1;ratioP1;P1;durP2;ratioP2;P2;SDS_P1;SDS_P2;PMS_P1;PMS_P2;Temp;Humidity;BMP_temperature;BMP_pressure;BME280_temperature;BME280_humidity;BME280_pressure;Samples;Min_cycle;Max_cycle;Signal;HPM_P1;HPM_P2
2021/11/22 00:02:00;;;;;;;11.03;9.20;;;;;;;8.38;66.41;98875.89;1632165;86;21510;-58
2021/11/22 00:04:29;;;;;;;10.85;9.75;;;;;;;8.31;66.96;98879.70;1636945;86;21506;-58
2021/11/22 00:06:57;;;;;;;9.55;8.53;;;;;;;8.28;66.97;98873.28;1633453;86;21143;-58
2021/11/22 00:09:26;;;;;;;9.50;8.50;;;;;;;8.30;67.40;98877.98;1622531;86;22825;-58
2021/11/22 00:11:53;;;;;;;9.47;8.37;;;;;;;8.38;66.96;98879.81;1638097;86;21431;-59
2021/11/22 00:14:21;;;;;;;9.93;8.93;;;;;;;8.38;66.91;98882.88;1624807;87;21463;-58
2021/11/22 00:16:48;;;;;;;8.98;8.10;;;;;;;8.35;66.90;98877.80;1632478;85;21524;-58
2021/11/22 00:19:17;;;;;;;9.55;8.55;;;;;;;8.28;67.16;98882.45;1646055;85;21545;-58
2021/11/22 00:21:44;;;;;;;9.83;8.80;;;;;;;8.24;67.37;98890.53;1646056;85;22020;-58
2021/11/22 00:24:11;;;;;;;9.73;8.63;;;;;;;8.22;67.32;98885.36;1632280;85;21049;-58
2021/11/22 00:26:38;;;;;;;9.73;8.40;;;;;;;8.13;67.63;98887.92;1639215;85;22112;-59
2021/11/22 00:29:06;;;;;;;9.93;8.43;;;;;;;8.21;67.98;98889.34;1642425;85;21510;-58
2021/11/22 00:31:41;;;;;;;9.68;8.73;;;;;;;8.31;67.66;98888.03;1639634;85;21540;-58
2021/11/22 00:34:10;;;;;;;10.15;9.15;;;;;;;8.28;67.67;98887.69;1644939;85;22028;-58
2021/11/22 00:36:56;;;;;;;9.48;8.58;;;;;;;8.26;67.57;98891.31;1645991;85;20974;-58
2021/11/22 00:39:23;;;;;;;9.63;8.73;;;;;;;8.21;67.73;98887.56;1648629;85;21482;-58
2021/11/22 00:41:50;;;;;;;9.63;8.77;;;;;;;8.17;67.68;98896.05;1633748;85;21585;-58
2021/11/22 00:44:17;;;;;;;8.60;7.75;;;;;;;8.14;67.85;98902.72;1637991;85;21570;-58
2021/11/22 00:46:44;;;;;;;9.07;8.17;;;;;;;8.10;68.02;98894.62;1644479;84;22008;-59
2021/11/22 00:49:11;;;;;;;8.83;7.97;;;;;;;8.12;68.27;98894.09;1645155;85;21553;-59
2021/11/22 00:51:38;;;;;;;8.98;8.08;;;;;;;8.23;67.78;98900.16;1646992;85;21102;-59
2021/11/22 00:54:06;;;;;;;8.90;8.10;;;;;;;8.23;67.71;98902.78;1609125;87;21488;-59
2021/11/22 00:56:36;;;;;;;9.13;8.23;;;;;;;8.15;67.87;98897.86;1611647;87;21615;-58
2021/11/22 00:59:02;;;;;;;9.20;8.28;;;;;;;8.12;67.95;98905.03;1643099;86;22056;-58
2021/11/22 01:01:29;;;;;;;9.58;8.68;;;;;;;8.11;67.83;98905.94;1638835;86;21408;-58
2021/11/22 01:03:56;;;;;;;8.65;7.85;;;;;;;8.08;67.82;98908.24;1634508;85;21467;-59
2021/11/22 01:06:23;;;;;;;9.18;7.87;;;;;;;8.05;67.75;98907.05;1635107;86;21466;-58
2021/11/22 01:08:50;;;;;;;8.70;7.83;;;;;;;8.08;68.13;98915.22;1636100;85;21582;-58
2021/11/22 01:11:17;;;;;;;9.40;7.53;;;;;;;8.15;67.73;98906.19;1637958;86;21819;-58
2021/11/22 01:13:44;;;;;;;8.53;7.70;;;;;;;8.15;67.42;98913.57;1640700;85;21510;-59
2021/11/22 01:16:11;;;;;;;8.23;7.42;;;;;;;8.14;67.29;98912.36;1633752;86;21632;-59
2021/11/22 01:18:38;;;;;;;7.85;7.15;;;;;;;8.11;67.22;98914.63;1638656;86;21564;-58
2021/11/22 01:21:05;;;;;;;9.17;8.27;;;;;;;8.10;67.28;98911.64;1637451;85;21539;-59
2021/11/22 01:23:32;;;;;;;8.55;7.75;;;;;;;8.02;67.35;98914.19;1632143;86;21754;-58
2021/11/22 01:25:59;;;;;;;9.00;8.00;;;;;;;8.00;67.35;98915.56;1637899;85;21428;-58
2021/11/22 01:28:27;;;;;;;8.95;6.78;;;;;;;7.94;67.52;98910.61;1636416;85;21562;-58
2021/11/22 01:30:54;;;;;;;7.97;7.17;;;;;;;8.01;67.62;98908.58;1633728;85;21910;-58
2021/11/22 01:33:22;;;;;;;8.65;7.45;;;;;;;8.08;67.18;98908.67;1646067;86;21563;-58
2021/11/22 01:35:49;;;;;;;8.78;7.87;;;;;;;8.02;67.30;98903.25;1641234;86;21796;-58
2021/11/22 01:38:16;;;;;;;10.25;8.30;;;;;;;7.98;67.25;98907.77;1636053;86;21462;-58
2021/11/22 01:40:43;;;;;;;9.85;7.90;;;;;;;7.94;67.41;98909.30;1627848;86;21595;-59
2021/11/22 01:43:14;;;;;;;8.95;8.08;;;;;;;7.91;67.43;98905.49;1640749;85;21582;-58
2021/11/22 01:45:42;;;;;;;8.90;7.92;;;;;;;7.86;67.61;98907.48;1632516;85;21516;-58
2021/11/22 01:48:09;;;;;;;10.30;9.20;;;;;;;7.83;67.74;98904.98;1642403;85;21419;-58
2021/11/22 01:50:36;;;;;;;9.40;8.50;;;;;;;7.79;67.85;98902.95;1642543;85;21384;-58
2021/11/22 01:53:03;;;;;;;7.37;6.67;;;;;;;7.82;68.22;98903.27;1634492;86;21553;-58
2021/11/22 01:55:30;;;;;;;7.83;7.13;;;;;;;7.90;67.83;98911.66;1629504;86;21495;-59
2021/11/22 01:57:58;;;;;;;9.20;8.30;;;;;;;7.88;67.71;98913.03;1630102;86;21867;-58
2021/11/22 02:00:40;;;;;;;8.48;7.67;;;;;;;7.86;67.78;98914.02;1636242;86;21843;-58
2021/11/22 02:03:07;;;;;;;8.68;7.78;;;;;;;7.80;67.85;98912.52;1633754;86;21427;-58
2021/11/22 02:05:35;;;;;;;9.38;8.48;;;;;;;7.78;67.93;98916.97;1641655;86;21470;-59
2021/11/22 02:08:02;;;;;;;9.68;8.70;;;;;;;7.76;68.08;98915.73;1634263;85;21633;-59
2021/11/22 02:10:30;;;;;;;9.00;8.10;;;;;;;7.79;67.93;98919.50;1637200;85;21522;-58
2021/11/22 02:12:58;;;;;;;10.08;8.20;;;;;;;7.78;68.10;98923.05;1639339;86;22124;-58
2021/11/22 02:15:25;;;;;;;9.10;8.20;;;;;;;7.77;68.39;98922.64;1640116;86;21005;-58
2021/11/22 02:17:53;;;;;;;10.48;8.33;;;;;;;7.90;68.19;98922.12;1636663;86;21581;-59
2021/11/22 02:20:24;;;;;;;9.63;8.63;;;;;;;7.95;67.97;98924.94;1622932;87;21439;-59
2021/11/22 02:22:56;;;;;;;9.00;7.90;;;;;;;7.92;67.87;98928.14;1616019;87;21640;-58
2021/11/22 02:25:24;;;;;;;9.80;8.55;;;;;;;7.88;67.84;98926.12;1627141;86;21844;-59
2021/11/22 02:27:51;;;;;;;8.93;8.03;;;;;;;7.83;68.00;98929.38;1620138;87;21557;-59
2021/11/22 02:30:21;;;;;;;9.60;8.70;;;;;;;7.77;68.15;98923.95;1634821;86;21454;-59
2021/11/22 02:32:48;;;;;;;9.38;8.48;;;;;;;7.71;68.23;98928.14;1633980;86;21587;-58
2021/11/22 02:35:18;;;;;;;9.53;8.63;;;;;;;7.63;68.30;98931.99;1615732;87;21053;-59
2021/11/22 02:37:46;;;;;;;8.50;7.70;;;;;;;7.56;68.83;98938.80;1628147;86;21838;-58
2021/11/22 02:40:13;;;;;;;8.95;8.10;;;;;;;7.61;68.90;98937.31;1634843;85;21581;-58
2021/11/22 02:42:41;;;;;;;10.30;8.55;;;;;;;7.62;68.70;98943.39;1633397;85;21536;-59
2021/11/22 02:45:10;;;;;;;9.33;8.43;;;;;;;7.55;68.73;98942.78;1615087;86;21519;-58
2021/11/22 02:47:38;;;;;;;9.50;8.48;;;;;;;7.49;68.98;98946.97;1637847;86;21491;-58
2021/11/22 02:50:08;;;;;;;9.55;8.65;;;;;;;7.43;69.20;98951.15;1636159;86;21754;-58
2021/11/22 02:52:35;;;;;;;9.83;8.93;;;;;;;7.34;69.31;98947.98;1636625;86;21403;-59
2021/11/22 02:55:04;;;;;;;9.25;8.05;;;;;;;7.24;69.81;98956.28;1632620;85;21522;-58
2021/11/22 02:57:31;;;;;;;8.95;8.05;;;;;;;7.17;70.10;98962.19;1629617;86;21558;-58
2021/11/22 02:59:58;;;;;;;9.40;8.43;;;;;;;7.15;70.52;98956.17;1625693;86;21086;-58
2021/11/22 03:02:25;;;;;;;8.65;7.65;;;;;;;7.20;70.32;98956.85;1623655;86;21866;-60
2021/11/22 03:04:52;;;;;;;10.35;8.40;;;;;;;7.15;70.32;98953.56;1634314;86;20990;-57
2021/11/22 03:07:20;;;;;;;9.20;8.30;;;;;;;7.10;70.56;98955.06;1619690;87;21416;-58
2021/11/22 03:09:46;;;;;;;9.23;8.13;;;;;;;7.03;70.71;98957.52;1616916;86;21086;-58
2021/11/22 03:12:15;;;;;;;9.80;8.80;;;;;;;6.99;70.89;98958.55;1620457;87;21598;-58
2021/11/22 03:14:42;;;;;;;9.98;8.98;;;;;;;6.92;70.96;98963.16;1637402;86;21879;-59
2021/11/22 03:17:09;;;;;;;10.37;8.77;;;;;;;6.85;71.15;98972.14;1626199;86;20974;-58
2021/11/22 03:19:36;;;;;;;;;;;;;;;6.85;71.70;98972.60;1638532;86;21503;-58
2021/11/22 03:22:04;;;;;;;8.50;7.70;;;;;;;6.91;71.58;98974.54;1629469;86;20744;-58
2021/11/22 03:24:31;;;;;;;8.08;7.37;;;;;;;6.92;71.32;98977.53;1635629;86;21431;-58
2021/11/22 03:27:00;;;;;;;9.35;7.97;;;;;;;6.86;71.39;98978.23;1636235;86;25759;-58
2021/11/22 03:29:27;;;;;;;12.55;8.35;;;;;;;6.84;71.45;98982.21;1633896;86;21456;-58
2021/11/22 03:31:55;;;;;;;8.35;7.55;;;;;;;6.79;71.67;98982.37;1633141;86;21057;-58
2021/11/22 03:34:22;;;;;;;9.00;7.92;;;;;;;6.73;72.08;98980.46;1631230;85;21045;-58
2021/11/22 03:36:49;;;;;;;8.10;7.30;;;;;;;6.76;72.72;98986.86;1636009;86;21566;-58
2021/11/22 03:39:21;;;;;;;;;;;;;;;6.82;72.68;98990.10;1635580;86;21826;-58
2021/11/22 03:41:46;;;;;;;10.08;8.33;;;;;;;6.83;72.61;98993.09;1616118;87;20443;-58
2021/11/22 03:44:14;;;;;;;8.83;7.93;;;;;;;6.81;72.55;98996.22;1631350;86;21467;-58
2021/11/22 03:46:45;;;;;;;9.53;8.53;;;;;;;6.80;72.67;98997.61;1620249;87;21582;-58
2021/11/22 03:49:13;;;;;;;9.48;8.35;;;;;;;6.74;72.85;99004.35;1611351;87;21495;-58
2021/11/22 03:51:41;;;;;;;9.85;8.85;;;;;;;6.73;72.90;99008.73;1621126;87;22076;-58
2021/11/22 03:54:10;;;;;;;9.98;8.98;;;;;;;6.76;73.26;99015.16;1619138;86;21591;-58
2021/11/22 03:56:38;;;;;;;10.15;9.15;;;;;;;6.87;73.11;99013.89;1618668;87;21034;-57
2021/11/22 03:59:06;;;;;;;9.55;8.63;;;;;;;6.93;72.66;99019.76;1619651;87;22020;-56
2021/11/22 04:01:33;;;;;;;9.28;8.38;;;;;;;6.89;72.71;99023.83;1615537;87;21525;-57
2021/11/22 04:04:00;;;;;;;10.23;8.68;;;;;;;6.86;72.83;99031.81;1608599;87;21850;-57
2021/11/22 04:06:27;;;;;;;8.90;7.80;;;;;;;6.81;73.00;99034.58;1624684;86;21431;-57
2021/11/22 04:08:56;;;;;;;9.15;8.25;;;;;;;6.81;73.09;99035.42;1618999;87;21463;-57
2021/11/22 04:11:23;;;;;;;9.48;8.40;;;;;;;6.86;73.30;99035.27;1618306;87;21506;-57
2021/11/22 04:13:51;;;;;;;8.58;7.78;;;;;;;6.95;73.15;99036.66;1620744;86;21425;-58
2021/11/22 04:16:20;;;;;;;8.73;7.92;;;;;;;6.95;73.00;99035.36;1614115;87;21804;-58
2021/11/22 04:20:07;;;;;;;9.70;8.68;;;;;;;7.01;72.97;99049.52;1786627;79;22684;-58
2021/11/22 04:22:34;;;;;;;;;;;;;;;6.94;72.85;99044.97;1761233;80;21577;-57
2021/11/22 04:25:01;;;;;;;9.15;8.25;;;;;;;6.95;72.91;99049.30;1770954;80;21855;-58
2021/11/22 04:27:30;;;;;;;7.90;7.10;;;;;;;6.93;73.10;99056.34;1767555;80;21582;-59
2021/11/22 04:29:57;;;;;;;9.27;8.30;;;;;;;7.05;73.08;99060.25;1763983;80;21523;-59
2021/11/22 04:32:24;;;;;;;10.00;8.18;;;;;;;7.18;72.38;99062.80;1757698;80;21507;-59
2021/11/22 04:34:51;;;;;;;8.93;8.13;;;;;;;7.14;72.37;99066.45;1768731;80;21431;-59
2021/11/22 04:37:18;;;;;;;12.57;8.50;;;;;;;7.11;72.37;99066.55;1768982;80;21910;-59
2021/11/22 04:39:45;;;;;;;8.70;7.80;;;;;;;7.09;72.49;99067.06;1763648;80;21573;-59
2021/11/22 04:42:12;;;;;;;9.70;8.73;;;;;;;7.09;72.77;99074.06;1734747;81;21553;-59
2021/11/22 04:44:39;;;;;;;10.93;8.17;;;;;;;7.09;72.77;99074.06;1722930;81;21919;-59
2021/11/22 04:47:09;;;;;;;10.87;7.40;;;;;;;7.17;72.52;99079.84;1685047;81;21598;-59
2021/11/22 04:49:37;;;;;;;8.05;7.22;;;;;;;7.29;72.10;99083.75;1708018;82;21793;-59
2021/11/22 04:52:06;;;;;;;10.43;7.72;;;;;;;7.31;71.96;99080.19;1721281;81;21409;-59
2021/11/22 04:54:37;;;;;;;9.98;7.75;;;;;;;7.32;71.89;99086.26;1703989;83;21459;-59
2021/11/22 04:57:04;;;;;;;9.05;8.23;;;;;;;7.32;71.74;99086.26;1716726;81;21057;-58
2021/11/22 04:59:32;;;;;;;7.58;6.95;;;;;;;7.33;71.60;99098.44;1723395;81;22252;-58
2021/11/22 05:02:00;;;;;;;6.53;5.87;;;;;;;7.32;71.33;99098.02;1727854;81;21835;-57
2021/11/22 05:04:27;;;;;;;7.12;6.37;;;;;;;7.28;71.30;99098.59;1731912;81;22266;-58
2021/11/22 05:06:55;;;;;;;6.55;5.80;;;;;;;7.29;71.33;99107.28;1730068;81;21641;-58
2021/11/22 05:09:23;;;;;;;6.53;5.00;;;;;;;7.37;71.13;99113.94;1736919;81;21585;-58
2021/11/22 05:11:50;;;;;;;6.53;4.92;;;;;;;7.40;70.72;99120.80;1731060;81;21535;-58
2021/11/22 05:14:17;;;;;;;5.15;4.65;;;;;;;7.37;70.36;99116.55;1720221;81;21525;-58
2021/11/22 05:16:45;;;;;;;;;;;;;;;7.33;70.00;99125.43;1731455;81;21065;-57
2021/11/22 05:19:12;;;;;;;7.17;4.65;;;;;;;7.26;69.57;99125.26;1727049;81;20444;-57
2021/11/22 05:21:39;;;;;;;8.28;4.85;;;;;;;7.16;69.68;99130.45;1717136;82;21565;-57
2021/11/22 05:24:06;;;;;;;8.37;5.23;;;;;;;7.09;69.72;99131.12;1717004;82;20952;-57
2021/11/22 05:26:33;;;;;;;10.13;6.03;;;;;;;7.04;69.72;99133.50;1714651;82;21844;-57
2021/11/22 05:29:05;;;;;;;10.33;6.23;;;;;;;6.96;69.73;99147.69;1718695;82;21507;-57
2021/11/22 05:31:33;;;;;;;9.80;5.37;;;;;;;6.98;69.79;99153.71;1715957;82;21539;-58
2021/11/22 05:34:00;;;;;;;7.70;5.40;;;;;;;7.12;69.68;99149.75;1707458;82;21566;-58
2021/11/22 05:36:27;;;;;;;9.30;5.37;;;;;;;7.18;69.48;99154.77;1713067;82;21614;-58
2021/11/22 05:38:55;;;;;;;7.95;5.65;;;;;;;7.16;69.23;99157.44;1713966;82;22163;-58
2021/11/22 05:41:22;;;;;;;;;;;;;;;7.13;69.17;99158.00;1724596;82;21388;-58
2021/11/22 05:43:50;;;;;;;;;;;;;;;7.07;69.04;99163.00;1705709;82;20166;-59
2021/11/22 05:46:17;;;;;;;6.92;4.62;;;;;;;7.00;68.94;99168.05;1717884;82;20531;-58
2021/11/22 05:48:43;;;;;;;6.00;4.17;;;;;;;6.90;69.12;99174.05;1707179;82;21455;-58
2021/11/22 05:51:12;;;;;;;4.73;4.23;;;;;;;6.83;69.14;99173.86;1725175;82;21504;-58
2021/11/22 05:53:42;;;;;;;5.33;3.58;;;;;;;6.77;69.23;99176.70;1715239;82;21526;-58
2021/11/22 05:56:08;;;;;;;5.35;3.75;;;;;;;6.71;69.23;99185.60;1710838;82;21046;-58
2021/11/22 05:58:36;;;;;;;4.57;3.63;;;;;;;6.66;69.43;99188.81;1720709;82;21555;-58
2021/11/22 06:01:05;;;;;;;12.37;7.33;;;;;;;6.70;69.56;99195.64;1713699;82;21436;-59
2021/11/22 06:03:32;;;;;;;20.43;13.22;;;;;;;6.72;69.55;99206.05;1710426;82;21499;-58
2021/11/22 06:05:59;;;;;;;20.97;12.90;;;;;;;6.69;69.56;99210.09;1746665;80;21431;-59
2021/11/22 06:08:26;;;;;;;16.40;9.87;;;;;;;6.65;69.53;99213.25;1718415;82;21436;-58
2021/11/22 06:10:53;;;;;;;20.97;9.53;;;;;;;6.63;69.54;99216.37;1749572;80;21441;-58
2021/11/22 06:13:21;;;;;;;12.13;7.13;;;;;;;6.59;69.60;99218.66;1747482;80;21563;-58
2021/11/22 06:15:50;;;;;;;11.33;6.75;;;;;;;6.56;69.60;99226.16;1749766;80;21111;-58
2021/11/22 06:18:18;;;;;;;11.38;5.22;;;;;;;6.50;69.68;99227.67;1753200;80;21452;-58
2021/11/22 06:20:44;;;;;;;;;;;;;;;6.48;69.70;99226.88;1763060;80;21517;-58
2021/11/22 06:23:11;;;;;;;9.80;4.72;;;;;;;6.50;70.01;99226.37;1763673;80;20449;-58
2021/11/22 06:25:38;;;;;;;9.98;4.42;;;;;;;6.59;70.06;99231.29;1761927;80;21589;-59
2021/11/22 06:28:05;;;;;;;12.10;4.72;;;;;;;6.66;70.01;99231.08;1752349;80;21802;-58
2021/11/22 06:30:32;;;;;;;15.93;5.10;;;;;;;6.70;69.99;99232.67;1757230;80;21415;-58
2021/11/22 06:32:59;;;;;;;13.20;4.95;;;;;;;6.74;69.72;99240.38;1754753;80;21000;-58
2021/11/22 06:35:26;;;;;;;8.25;4.50;;;;;;;6.71;69.76;99243.08;1764816;80;21439;-54
2021/11/22 06:37:53;;;;;;;11.15;5.03;;;;;;;6.69;69.99;99240.98;1753262;80;21015;-54
2021/11/22 06:40:20;;;;;;;10.60;5.30;;;;;;;6.76;69.89;99238.56;1746985;80;21753;-54
2021/11/22 06:42:48;;;;;;;7.78;4.37;;;;;;;6.80;69.82;99244.55;1760252;80;21628;-54
2021/11/22 06:45:15;;;;;;;12.50;4.20;;;;;;;6.90;69.90;99249.00;1755646;80;21474;-54
2021/11/22 06:47:43;;;;;;;12.50;4.40;;;;;;;7.11;69.66;99253.48;1751578;80;21408;-54
2021/11/22 06:50:10;;;;;;;10.70;4.53;;;;;;;7.23;69.12;99253.49;1754223;80;21044;-54
2021/11/22 06:52:37;;;;;;;6.22;4.00;;;;;;;7.27;68.56;99249.02;1713425;82;21760;-54
2021/11/22 06:55:05;;;;;;;8.43;4.10;;;;;;;7.29;68.24;99255.91;1712562;82;21482;-55
2021/11/22 06:57:32;;;;;;;5.85;3.90;;;;;;;7.29;68.38;99264.19;1766930;80;21411;-55
2021/11/22 06:59:59;;;;;;;11.93;4.40;;;;;;;7.36;68.22;99259.98;1690789;83;21582;-55
2021/11/22 07:02:26;;;;;;;4.17;3.70;;;;;;;7.45;67.58;99260.13;1766550;80;21617;-55
2021/11/22 07:04:53;;;;;;;3.65;3.12;;;;;;;7.52;67.05;99269.93;1759138;80;22069;-56
2021/11/22 07:07:20;;;;;;;5.03;3.00;;;;;;;7.54;66.63;99267.64;1760174;80;21482;-56
2021/11/22 07:09:48;;;;;;;4.03;3.17;;;;;;;7.60;66.39;99268.72;1753554;80;21539;-55
2021/11/22 07:12:15;;;;;;;4.85;2.75;;;;;;;7.66;65.71;99271.56;1765720;80;28708;-56
2021/11/22 07:14:43;;;;;;;2.97;2.50;;;;;;;7.71;65.65;99268.34;1755776;80;21488;-56
2021/11/22 07:17:11;;;;;;;2.45;2.20;;;;;;;7.75;64.81;99268.61;1762853;80;22096;-55
2021/11/22 07:19:38;;;;;;;2.80;2.12;;;;;;;7.76;64.06;99276.00;1754461;80;21606;-56
2021/11/22 07:22:09;;;;;;;2.72;1.87;;;;;;;7.75;63.38;99273.00;1718437;82;21480;-55
2021/11/22 07:24:39;;;;;;;2.35;1.98;;;;;;;7.69;63.01;99287.17;1746674;80;21443;-56
2021/11/22 07:27:07;;;;;;;2.25;2.02;;;;;;;7.64;63.04;99290.40;1752319;80;20975;-56
2021/11/22 07:29:34;;;;;;;1.98;1.75;;;;;;;7.59;63.25;99296.24;1717418;82;21472;-55
2021/11/22 07:32:01;;;;;;;2.02;1.75;;;;;;;7.59;63.12;99294.94;1752171;80;21518;-56
2021/11/22 07:34:28;;;;;;;2.40;2.17;;;;;;;7.57;63.01;99296.76;1706039;82;21063;-55
2021/11/22 07:36:55;;;;;;;2.30;2.10;;;;;;;7.61;63.14;99298.38;1756268;80;21491;-55
2021/11/22 07:39:22;;;;;;;3.43;2.60;;;;;;;7.68;63.04;99307.69;1718047;82;21543;-55
2021/11/22 07:41:51;;;;;;;3.63;2.70;;;;;;;7.76;62.99;99312.64;1754236;80;22003;-54
2021/11/22 07:44:18;;;;;;;7.55;3.00;;;;;;;7.85;62.97;99317.54;1750496;80;21523;-55
2021/11/22 07:46:45;;;;;;;3.58;3.10;;;;;;;7.91;62.94;99319.95;1748797;80;21578;-55
2021/11/22 07:49:12;;;;;;;3.37;3.07;;;;;;;7.96;62.59;99321.08;1750467;80;21455;-54
2021/11/22 07:51:41;;;;;;;3.87;3.12;;;;;;;8.00;62.57;99313.50;1749603;80;21549;-54
2021/11/22 07:54:08;;;;;;;5.85;2.80;;;;;;;8.03;62.60;99314.71;1750495;80;21754;-54
2021/11/22 07:56:36;;;;;;;8.88;3.83;;;;;;;8.09;62.34;99318.86;1749080;80;25624;-55
2021/11/22 07:59:03;;;;;;;5.67;3.90;;;;;;;8.09;62.32;99318.86;1745312;80;21010;-55
2021/11/22 08:01:30;;;;;;;2.62;2.42;;;;;;;8.07;61.98;99320.22;1690176;83;21646;-56
2021/11/22 08:03:57;;;;;;;2.92;2.40;;;;;;;8.04;61.32;99337.34;1749269;80;21556;-54
2021/11/22 08:06:25;;;;;;;2.43;2.07;;;;;;;7.90;60.38;99335.25;1688598;83;21484;-55
2021/11/22 08:08:52;;;;;;;;;;;;;;;7.84;60.43;99334.64;1745595;80;21599;-54
2021/11/22 08:13:52;;;;;;;2.33;1.65;;;;;;;7.87;59.93;99344.52;1739342;80;21586;-55
2021/11/22 08:16:20;;;;;;;1.30;1.20;;;;;;;7.87;59.37;99346.28;1749490;80;21511;-55
2021/11/22 08:18:47;;;;;;;2.52;1.62;;;;;;;7.81;58.88;99352.59;1746056;80;21829;-55
2021/11/22 08:21:15;;;;;;;1.97;1.40;;;;;;;7.83;58.48;99354.70;1708590;82;21566;-55
2021/11/22 08:23:43;;;;;;;2.42;1.67;;;;;;;7.86;58.92;99353.30;1742571;80;21957;-55
2021/11/22 08:26:10;;;;;;;2.37;1.80;;;;;;;7.91;58.59;99357.04;1750118;80;21404;-57
2021/11/22 08:28:37;;;;;;;2.17;1.40;;;;;;;7.96;57.84;99360.35;1740479;80;21124;-55
2021/11/22 08:31:04;;;;;;;2.10;1.90;;;;;;;7.96;58.13;99365.12;1754672;80;21706;-55
2021/11/22 08:33:33;;;;;;;2.67;2.05;;;;;;;8.00;57.97;99367.17;1747313;80;21601;-55
2021/11/22 08:36:00;;;;;;;1.67;1.52;;;;;;;8.04;57.65;99370.54;1755474;80;20999;-56
2021/11/22 08:38:27;;;;;;;2.47;1.63;;;;;;;8.00;57.46;99367.17;1746980;80;20982;-56
2021/11/22 08:40:55;;;;;;;1.50;1.30;;;;;;;8.02;57.59;99370.59;1745566;80;21896;-55
2021/11/22 08:43:22;;;;;;;1.55;1.20;;;;;;;8.05;57.01;99375.72;1754157;80;21792;-56
2021/11/22 08:45:49;;;;;;;1.40;1.30;;;;;;;7.96;57.02;99372.97;1752857;80;21641;-56
2021/11/22 08:48:18;;;;;;;3.70;1.30;;;;;;;7.98;56.85;99376.85;1740324;80;21573;-55
2021/11/22 08:50:45;;;;;;;1.60;1.50;;;;;;;7.88;56.82;99376.80;1747855;80;21014;-55
2021/11/22 08:53:12;;;;;;;2.55;1.45;;;;;;;7.82;57.00;99380.92;1753466;80;21415;-55
2021/11/22 08:55:39;;;;;;;2.77;1.53;;;;;;;7.85;57.17;99382.98;1742867;80;21554;-55
2021/11/22 08:58:06;;;;;;;4.63;1.67;;;;;;;7.88;56.37;99385.97;1745426;80;21033;-55
2021/11/22 09:00:35;;;;;;;3.83;1.47;;;;;;;7.87;56.58;99396.02;1742426;80;21037;-55
2021/11/22 09:03:02;;;;;;;4.33;1.80;;;;;;;7.92;56.91;99390.17;1744502;80;21558;-54
2021/11/22 09:05:29;;;;;;;2.67;1.57;;;;;;;7.97;56.44;99386.48;1741418;80;21631;-56
2021/11/22 09:07:56;;;;;;;2.75;1.42;;;;;;;8.00;56.40;99393.36;1743639;80;21732;-57
2021/11/22 09:10:23;;;;;;;2.37;1.50;;;;;;;8.00;56.23;99398.59;1746442;80;21404;-56
2021/11/22 09:12:54;;;;;;;3.30;1.50;;;;;;;7.98;56.55;99392.56;1745423;80;21498;-56
2021/11/22 09:15:22;;;;;;;2.80;1.75;;;;;;;8.01;56.54;99404.25;1708110;82;21598;-56
2021/11/22 09:17:48;;;;;;;2.52;1.60;;;;;;;8.07;56.46;99402.70;1754432;80;21583;-57
2021/11/22 09:20:15;;;;;;;1.70;1.60;;;;;;;8.12;56.37;99406.48;1711388;82;21760;-56
2021/11/22 09:22:42;;;;;;;2.42;1.55;;;;;;;8.10;56.17;99410.89;1749024;80;21771;-56
2021/11/22 09:25:12;;;;;;;2.27;1.40;;;;;;;8.13;56.10;99407.71;1746019;80;21522;-55
2021/11/22 09:27:39;;;;;;;3.25;1.40;;;;;;;8.19;56.00;99404.89;1747708;80;21096;-55
2021/11/22 09:30:08;;;;;;;2.08;1.47;;;;;;;8.23;55.78;99405.63;1741370;80;21408;-56
2021/11/22 09:32:36;;;;;;;2.05;1.60;;;;;;;8.19;55.60;99406.20;1739521;80;21551;-55
2021/11/22 09:35:05;;;;;;;2.05;1.62;;;;;;;8.22;55.57;99408.30;1707498;82;21515;-55
2021/11/22 09:37:33;;;;;;;3.02;2.30;;;;;;;8.30;55.76;99406.24;1743356;80;21002;-56
2021/11/22 09:40:01;;;;;;;2.77;1.90;;;;;;;8.35;55.50;99406.94;1740961;80;21014;-56
2021/11/22 09:42:27;;;;;;;3.30;1.90;;;;;;;8.34;55.52;99408.71;1744426;80;21546;-56
2021/11/22 09:44:54;;;;;;;3.77;1.80;;;;;;;8.39;55.29;99401.51;1747315;80;22078;-56
2021/11/22 09:47:22;;;;;;;1.60;1.47;;;;;;;8.44;55.12;99401.38;1755651;80;21526;-56
2021/11/22 09:49:54;;;;;;;1.77;1.45;;;;;;;8.48;54.84;99410.83;1746717;80;21511;-56
2021/11/22 09:52:18;;;;;;;2.27;1.45;;;;;;;8.53;54.69;99398.84;1744102;80;21570;-55
2021/11/22 09:54:45;;;;;;;3.45;1.67;;;;;;;8.66;54.49;99404.48;1745051;80;21578;-57
2021/11/22 09:57:14;;;;;;;6.22;1.98;;;;;;;8.77;54.28;99407.07;1746122;80;21661;-56
2021/11/22 09:59:42;;;;;;;1.77;1.62;;;;;;;8.86;53.89;99412.89;1743008;80;21658;-56
2021/11/22 10:02:09;;;;;;;1.90;1.50;;;;;;;8.73;53.33;99409.89;1745998;80;21486;-56
2021/11/22 10:04:36;;;;;;;1.70;1.40;;;;;;;8.61;53.71;99414.28;1746391;80;21116;-58
2021/11/22 10:07:06;;;;;;;1.32;1.17;;;;;;;8.41;53.78;99393.59;1740958;80;21596;-57
2021/11/22 10:09:45;;;;;;;1.92;1.65;;;;;;;8.52;53.68;99415.03;1745997;80;21750;-56
2021/11/22 10:12:20;;;;;;;2.05;1.40;;;;;;;8.45;53.79;99417.48;1753458;80;21534;-56
2021/11/22 10:14:58;;;;;;;3.80;1.75;;;;;;;8.42;53.98;99408.45;1743430;80;21571;-57
2021/11/22 10:17:36;;;;;;;1.32;1.22;;;;;;;8.44;54.02;99413.17;1745244;80;21578;-57
2021/11/22 10:20:12;;;;;;;;;;;;;;;8.44;53.97;99409.67;1745580;80;21467;-56
2021/11/22 10:23:02;;;;;;;6.37;2.25;;;;;;;8.42;53.94;99415.44;1748113;80;21955;-55
2021/11/22 10:25:37;;;;;;;7.33;1.82;;;;;;;8.33;54.23;99410.91;1748508;80;21593;-56
2021/11/22 10:28:23;;;;;;;2.45;1.82;;;;;;;8.31;54.37;99417.98;1744423;80;21459;-56
2021/11/22 10:31:01;;;;;;;2.45;1.70;;;;;;;8.28;54.18;99411.53;1748320;80;21511;-56
2021/11/22 10:33:31;;;;;;;2.62;1.57;;;;;;;8.17;54.30;99411.95;1749144;80;24468;-56
2021/11/22 10:36:01;;;;;;;1.70;1.20;;;;;;;8.14;54.34;99415.98;1743342;80;21636;-56
2021/11/22 10:38:31;;;;;;;2.42;1.52;;;;;;;8.04;54.04;99417.20;1698863;82;21551;-55
2021/11/22 10:41:02;;;;;;;2.92;1.45;;;;;;;7.97;54.52;99419.67;1739107;80;21478;-56
2021/11/22 10:43:37;;;;;;;3.25;1.70;;;;;;;8.00;54.72;99418.23;1743264;80;21565;-56
2021/11/22 10:46:07;;;;;;;4.90;1.62;;;;;;;9.14;53.52;99413.95;1752738;80;21412;-56
2021/11/22 10:48:35;;;;;;;3.15;1.47;;;;;;;10.40;50.58;99402.45;1755424;80;22057;-56
2021/11/22 10:51:27;;;;;;;2.17;1.53;;;;;;;11.26;49.17;99402.28;1722218;82;21494;-57
2021/11/22 10:53:52;;;;;;;2.67;1.32;;;;;;;12.15;48.25;99400.41;1743136;80;21519;-56
2021/11/22 10:56:26;;;;;;;2.58;1.40;;;;;;;13.24;44.35;99394.38;1752062;80;21511;-56
2021/11/22 10:59:12;;;;;;;1.80;1.60;;;;;;;14.04;42.00;99398.54;1692107;84;21455;-57
2021/11/22 11:01:50;;;;;;;1.77;1.62;;;;;;;14.06;42.89;99396.66;1747536;80;22111;-57
2021/11/22 11:04:37;;;;;;;4.55;1.80;;;;;;;14.57;41.28;99393.90;1754538;80;27057;-57
2021/11/22 11:07:06;;;;;;;6.05;2.30;;;;;;;15.02;41.04;99391.53;1751395;80;20956;-57
2021/11/22 11:09:39;;;;;;;3.98;1.80;;;;;;;15.91;40.18;99399.69;1744387;80;21409;-58
2021/11/22 11:12:20;;;;;;;2.40;1.20;;;;;;;16.52;37.23;99395.05;1752790;80;21452;-58
2021/11/22 11:14:51;;;;;;;10.10;5.50;;;;;;;16.90;37.52;99402.08;1751256;80;22542;-58
2021/11/22 11:17:34;;;;;;;8.18;5.72;;;;;;;17.53;34.57;99395.22;1751743;80;21559;-59
2021/11/22 11:20:11;;;;;;;8.25;4.95;;;;;;;17.94;34.89;99400.56;1737965;80;21515;-58
2021/11/22 11:22:38;;;;;;;9.63;6.80;;;;;;;17.87;34.38;99398.84;1752070;80;21562;-62
2021/11/22 11:25:06;;;;;;;7.43;6.53;;;;;;;16.43;35.31;99401.00;1755032;80;22358;-55
2021/11/22 11:27:40;;;;;;;3.92;3.30;;;;;;;15.08;36.86;99402.55;1757176;80;21553;-56
2021/11/22 11:30:08;;;;;;;1.72;1.60;;;;;;;14.20;38.74;99407.21;1747778;80;21567;-59
2021/11/22 11:32:37;;;;;;;1.62;1.22;;;;;;;13.63;38.99;99410.64;1753131;80;21534;-57
2021/11/22 11:35:08;;;;;;;1.60;1.50;;;;;;;13.03;40.08;99416.25;1752539;80;21419;-56
2021/11/22 11:37:54;;;;;;;1.92;1.40;;;;;;;12.67;40.44;99424.41;1721454;82;21523;-57
2021/11/22 11:40:55;;;;;;;1.77;1.67;;;;;;;12.49;41.19;99422.77;1693301;82;21733;-59
2021/11/22 11:43:52;;;;;;;2.60;2.37;;;;;;;12.50;41.23;99420.53;1659038;84;21100;-59
2021/11/22 11:46:36;;;;;;;2.37;1.98;;;;;;;12.68;41.46;99416.02;1653688;85;21071;-59
2021/11/22 11:49:11;;;;;;;1.70;1.55;;;;;;;12.81;41.40;99407.84;1624219;85;21558;-59
2021/11/22 11:51:44;;;;;;;2.30;1.70;;;;;;;12.66;41.21;99409.06;1711977;82;21116;-58
2021/11/22 11:54:21;;;;;;;1.92;1.70;;;;;;;12.16;41.83;99422.34;1718543;82;21772;-57